sensor_id;sensor_type;location;lat;lon;timestamp;temperature;humidity
3876;DHT22;1953;51.222;6.624;2023-09-19T00:04:39;17.50;1.00
3876;DHT22;1953;51.222;6.624;2023-09-19T00:09:23;17.50;1.00
3876;DHT22;1953;51.222;6.624;2023-09-19T00:18:15;17.30;1.00
3876;DHT22;1953;51.222;6.624;2023-09-19T00:22:58;17.30;1.00
3876;DHT22;1953;51.222;6.624;2023-09-19T00:27:46;17.20;1.00
3876;DHT22;1953;51.222;6.624;2023-09-19T00:32:32;17.20;1.00
3876;DHT22;1953;51.222;6.624;2023-09-19T00:37:16;17.10;1.00
3876;DHT22;1953;51.222;6.624;2023-09-19T00:41:59;17.10;1.00
3876;DHT22;1953;51.222;6.624;2023-09-19T00:46:46;17.10;1.00
3876;DHT22;1953;51.222;6.624;2023-09-19T00:51:30;17.10;1.00
3876;DHT22;1953;51.222;6.624;2023-09-19T00:56:15;17.00;1.00
3876;DHT22;1953;51.222;6.624;2023-09-19T01:00:59;17.00;1.00
3876;DHT22;1953;51.222;6.624;2023-09-19T01:05:42;17.00;1.00
3876;DHT22;1953;51.222;6.624;2023-09-19T01:10:25;16.90;1.00
3876;DHT22;1953;51.222;6.624;2023-09-19T01:15:17;17.00;1.00
3876;DHT22;1953;51.222;6.624;2023-09-19T01:20:14;17.00;1.00
3876;DHT22;1953;51.222;6.624;2023-09-19T01:25:20;16.90;1.00
3876;DHT22;1953;51.222;6.624;2023-09-19T01:30:14;16.90;1.00
3876;DHT22;1953;51.222;6.624;2023-09-19T01:34:58;16.90;1.00
3876;DHT22;1953;51.222;6.624;2023-09-19T01:39:46;16.90;1.00
3876;DHT22;1953;51.222;6.624;2023-09-19T01:44:39;16.80;1.00
3876;DHT22;1953;51.222;6.624;2023-09-19T01:49:31;16.80;1.00
3876;DHT22;1953;51.222;6.624;2023-09-19T01:54:20;16.80;1.00
3876;DHT22;1953;51.222;6.624;2023-09-19T01:59:11;16.80;1.00
3876;DHT22;1953;51.222;6.624;2023-09-19T02:03:55;16.80;1.00
3876;DHT22;1953;51.222;6.624;2023-09-19T02:08:39;16.80;1.00
3876;DHT22;1953;51.222;6.624;2023-09-19T02:13:23;16.80;1.00
3876;DHT22;1953;51.222;6.624;2023-09-19T02:18:08;16.80;1.00
3876;DHT22;1953;51.222;6.624;2023-09-19T02:22:50;16.80;1.00
3876;DHT22;1953;51.222;6.624;2023-09-19T02:27:34;16.80;1.00
3876;DHT22;1953;51.222;6.624;2023-09-19T02:32:17;16.80;1.00
3876;DHT22;1953;51.222;6.624;2023-09-19T02:37:00;16.70;1.00
3876;DHT22;1953;51.222;6.624;2023-09-19T02:41:43;16.70;1.00
3876;DHT22;1953;51.222;6.624;2023-09-19T02:46:27;16.70;1.00
3876;DHT22;1953;51.222;6.624;2023-09-19T02:51:10;16.60;1.00
3876;DHT22;1953;51.222;6.624;2023-09-19T02:55:52;16.70;1.00
3876;DHT22;1953;51.222;6.624;2023-09-19T03:00:35;16.60;1.00
3876;DHT22;1953;51.222;6.624;2023-09-19T03:05:19;16.60;1.00
3876;DHT22;1953;51.222;6.624;2023-09-19T03:10:02;16.60;1.00
3876;DHT22;1953;51.222;6.624;2023-09-19T03:14:46;16.60;1.00
3876;DHT22;1953;51.222;6.624;2023-09-19T03:19:28;16.60;1.00
3876;DHT22;1953;51.222;6.624;2023-09-19T03:24:13;16.60;1.00
3876;DHT22;1953;51.222;6.624;2023-09-19T03:28:55;16.50;1.00
3876;DHT22;1953;51.222;6.624;2023-09-19T03:33:38;16.50;1.00
3876;DHT22;1953;51.222;6.624;2023-09-19T03:38:21;16.50;1.00
3876;DHT22;1953;51.222;6.624;2023-09-19T03:43:05;16.40;1.00
3876;DHT22;1953;51.222;6.624;2023-09-19T03:47:47;16.40;1.00
3876;DHT22;1953;51.222;6.624;2023-09-19T03:52:30;16.40;1.00
3876;DHT22;1953;51.222;6.624;2023-09-19T03:57:12;16.30;1.00
3876;DHT22;1953;51.222;6.624;2023-09-19T04:01:58;16.30;1.00
3876;DHT22;1953;51.222;6.624;2023-09-19T04:06:40;16.30;1.00
3876;DHT22;1953;51.222;6.624;2023-09-19T04:11:23;16.20;1.00
3876;DHT22;1953;51.222;6.624;2023-09-19T04:16:06;16.20;1.00
3876;DHT22;1953;51.222;6.624;2023-09-19T04:20:50;16.20;1.00
3876;DHT22;1953;51.222;6.624;2023-09-19T04:25:33;16.20;1.00
3876;DHT22;1953;51.222;6.624;2023-09-19T04:30:16;16.10;1.00
3876;DHT22;1953;51.222;6.624;2023-09-19T04:34:58;16.20;1.00
3876;DHT22;1953;51.222;6.624;2023-09-19T04:39:44;16.10;1.00
3876;DHT22;1953;51.222;6.624;2023-09-19T04:44:27;16.10;1.00
3876;DHT22;1953;51.222;6.624;2023-09-19T04:49:10;16.20;1.00
3876;DHT22;1953;51.222;6.624;2023-09-19T04:53:52;16.10;1.00
3876;DHT22;1953;51.222;6.624;2023-09-19T04:58:36;16.10;1.00
3876;DHT22;1953;51.222;6.624;2023-09-19T05:03:18;16.10;1.00
3876;DHT22;1953;51.222;6.624;2023-09-19T05:08:02;16.10;1.00
3876;DHT22;1953;51.222;6.624;2023-09-19T05:12:46;16.00;1.00
3876;DHT22;1953;51.222;6.624;2023-09-19T05:17:31;16.00;1.00
3876;DHT22;1953;51.222;6.624;2023-09-19T05:22:14;16.00;1.00
3876;DHT22;1953;51.222;6.624;2023-09-19T05:26:56;16.10;1.00
3876;DHT22;1953;51.222;6.624;2023-09-19T05:31:39;16.10;1.00
3876;DHT22;1953;51.222;6.624;2023-09-19T05:36:23;16.10;1.00
3876;DHT22;1953;51.222;6.624;2023-09-19T05:41:06;16.20;1.00
3876;DHT22;1953;51.222;6.624;2023-09-19T05:45:49;16.30;1.00
3876;DHT22;1953;51.222;6.624;2023-09-19T05:50:33;16.40;1.00
3876;DHT22;1953;51.222;6.624;2023-09-19T05:55:17;16.40;1.00
3876;DHT22;1953;51.222;6.624;2023-09-19T06:00:00;16.50;1.00
3876;DHT22;1953;51.222;6.624;2023-09-19T06:04:42;16.50;1.00
3876;DHT22;1953;51.222;6.624;2023-09-19T06:09:25;16.50;1.00
3876;DHT22;1953;51.222;6.624;2023-09-19T06:14:10;16.50;1.00
3876;DHT22;1953;51.222;6.624;2023-09-19T06:18:53;16.70;1.00
3876;DHT22;1953;51.222;6.624;2023-09-19T06:23:36;16.70;1.00
3876;DHT22;1953;51.222;6.624;2023-09-19T06:28:19;16.70;1.00
3876;DHT22;1953;51.222;6.624;2023-09-19T06:33:06;16.70;1.00
3876;DHT22;1953;51.222;6.624;2023-09-19T06:37:49;16.70;1.00
3876;DHT22;1953;51.222;6.624;2023-09-19T06:42:32;16.80;1.00
3876;DHT22;1953;51.222;6.624;2023-09-19T06:47:15;16.90;1.00
3876;DHT22;1953;51.222;6.624;2023-09-19T06:52:00;16.90;1.00
3876;DHT22;1953;51.222;6.624;2023-09-19T06:56:43;16.80;1.00
3876;DHT22;1953;51.222;6.624;2023-09-19T07:01:26;16.80;1.00
3876;DHT22;1953;51.222;6.624;2023-09-19T07:06:08;16.90;1.00
3876;DHT22;1953;51.222;6.624;2023-09-19T07:10:52;16.90;1.00
3876;DHT22;1953;51.222;6.624;2023-09-19T07:15:35;17.00;1.00
3876;DHT22;1953;51.222;6.624;2023-09-19T07:20:20;17.00;1.00
3876;DHT22;1953;51.222;6.624;2023-09-19T07:25:03;17.10;1.00
3876;DHT22;1953;51.222;6.624;2023-09-19T07:29:47;17.20;1.00
3876;DHT22;1953;51.222;6.624;2023-09-19T07:34:29;17.20;1.00
3876;DHT22;1953;51.222;6.624;2023-09-19T07:39:12;17.20;1.00
3876;DHT22;1953;51.222;6.624;2023-09-19T07:43:54;17.30;1.00
3876;DHT22;1953;51.222;6.624;2023-09-19T07:48:39;17.40;1.00
3876;DHT22;1953;51.222;6.624;2023-09-19T07:53:22;17.40;1.00
3876;DHT22;1953;51.222;6.624;2023-09-19T07:58:04;17.50;1.00
3876;DHT22;1953;51.222;6.624;2023-09-19T08:02:48;17.60;1.00
3876;DHT22;1953;51.222;6.624;2023-09-19T08:07:34;17.70;1.00
3876;DHT22;1953;51.222;6.624;2023-09-19T08:12:18;17.80;1.00
3876;DHT22;1953;51.222;6.624;2023-09-19T08:17:05;18.00;1.00
3876;DHT22;1953;51.222;6.624;2023-09-19T08:21:49;18.00;1.00
3876;DHT22;1953;51.222;6.624;2023-09-19T08:26:33;18.10;1.00
3876;DHT22;1953;51.222;6.624;2023-09-19T08:31:15;18.20;1.00
3876;DHT22;1953;51.222;6.624;2023-09-19T08:35:58;18.20;1.00
3876;DHT22;1953;51.222;6.624;2023-09-19T08:40:41;18.30;1.00
3876;DHT22;1953;51.222;6.624;2023-09-19T08:45:26;18.40;1.00
3876;DHT22;1953;51.222;6.624;2023-09-19T08:50:14;18.50;1.00
3876;DHT22;1953;51.222;6.624;2023-09-19T08:55:02;18.50;1.00
3876;DHT22;1953;51.222;6.624;2023-09-19T08:59:47;18.60;1.00
3876;DHT22;1953;51.222;6.624;2023-09-19T09:04:33;18.60;1.00
3876;DHT22;1953;51.222;6.624;2023-09-19T09:09:17;18.60;1.00
3876;DHT22;1953;51.222;6.624;2023-09-19T09:13:59;18.80;1.00
3876;DHT22;1953;51.222;6.624;2023-09-19T09:18:42;18.80;1.00
3876;DHT22;1953;51.222;6.624;2023-09-19T09:23:27;18.90;1.00
3876;DHT22;1953;51.222;6.624;2023-09-19T09:28:11;19.00;1.00
3876;DHT22;1953;51.222;6.624;2023-09-19T09:33:07;19.20;1.00
3876;DHT22;1953;51.222;6.624;2023-09-19T09:37:59;19.20;1.00
3876;DHT22;1953;51.222;6.624;2023-09-19T09:42:45;19.30;1.00
3876;DHT22;1953;51.222;6.624;2023-09-19T09:47:41;19.40;1.00
3876;DHT22;1953;51.222;6.624;2023-09-19T09:52:44;19.40;1.00
3876;DHT22;1953;51.222;6.624;2023-09-19T09:57:26;19.40;1.00
3876;DHT22;1953;51.222;6.624;2023-09-19T10:02:12;19.60;1.00
3876;DHT22;1953;51.222;6.624;2023-09-19T10:06:55;19.70;1.00
3876;DHT22;1953;51.222;6.624;2023-09-19T10:11:42;19.80;1.00
3876;DHT22;1953;51.222;6.624;2023-09-19T10:16:30;19.90;1.00
3876;DHT22;1953;51.222;6.624;2023-09-19T10:21:14;19.90;1.00
3876;DHT22;1953;51.222;6.624;2023-09-19T10:26:03;19.80;1.00
3876;DHT22;1953;51.222;6.624;2023-09-19T10:30:48;20.00;1.00
3876;DHT22;1953;51.222;6.624;2023-09-19T10:35:32;20.00;1.00
3876;DHT22;1953;51.222;6.624;2023-09-19T10:40:16;20.10;1.00
3876;DHT22;1953;51.222;6.624;2023-09-19T10:45:02;20.30;1.00
3876;DHT22;1953;51.222;6.624;2023-09-19T10:49:49;20.10;1.00
3876;DHT22;1953;51.222;6.624;2023-09-19T10:54:34;20.20;1.00
3876;DHT22;1953;51.222;6.624;2023-09-19T10:59:20;20.30;1.00
3876;DHT22;1953;51.222;6.624;2023-09-19T11:04:22;20.30;1.00
3876;DHT22;1953;51.222;6.624;2023-09-19T11:09:05;20.40;1.00
3876;DHT22;1953;51.222;6.624;2023-09-19T11:14:30;20.50;1.00
3876;DHT22;1953;51.222;6.624;2023-09-19T11:19:19;20.40;1.00
3876;DHT22;1953;51.222;6.624;2023-09-19T11:24:32;20.40;1.00
3876;DHT22;1953;51.222;6.624;2023-09-19T11:29:28;20.70;1.00
3876;DHT22;1953;51.222;6.624;2023-09-19T11:34:43;20.80;1.00
3876;DHT22;1953;51.222;6.624;2023-09-19T11:39:27;20.70;1.00
3876;DHT22;1953;51.222;6.624;2023-09-19T11:44:33;20.60;1.00
3876;DHT22;1953;51.222;6.624;2023-09-19T11:49:24;20.60;1.00
3876;DHT22;1953;51.222;6.624;2023-09-19T11:54:14;20.80;1.00
3876;DHT22;1953;51.222;6.624;2023-09-19T11:58:59;20.90;1.00
3876;DHT22;1953;51.222;6.624;2023-09-19T12:03:46;21.00;1.00
3876;DHT22;1953;51.222;6.624;2023-09-19T12:08:29;21.20;1.00
3876;DHT22;1953;51.222;6.624;2023-09-19T12:13:16;21.30;1.00
3876;DHT22;1953;51.222;6.624;2023-09-19T12:19:22;21.60;1.00
3876;DHT22;1953;51.222;6.624;2023-09-19T12:24:11;21.80;1.00
3876;DHT22;1953;51.222;6.624;2023-09-19T12:28:54;22.10;1.00
3876;DHT22;1953;51.222;6.624;2023-09-19T12:33:37;22.40;1.00
3876;DHT22;1953;51.222;6.624;2023-09-19T12:38:26;22.60;1.00
3876;DHT22;1953;51.222;6.624;2023-09-19T12:43:10;22.90;1.00
3876;DHT22;1953;51.222;6.624;2023-09-19T12:48:18;23.40;1.00
3876;DHT22;1953;51.222;6.624;2023-09-19T12:53:03;24.00;1.00
3876;DHT22;1953;51.222;6.624;2023-09-19T12:57:57;24.10;1.00
3876;DHT22;1953;51.222;6.624;2023-09-19T13:03:14;25.20;1.00
3876;DHT22;1953;51.222;6.624;2023-09-19T13:08:18;24.40;1.00
3876;DHT22;1953;51.222;6.624;2023-09-19T13:13:22;24.70;1.00
3876;DHT22;1953;51.222;6.624;2023-09-19T13:18:11;24.60;1.00
3876;DHT22;1953;51.222;6.624;2023-09-19T13:22:55;24.00;1.00
3876;DHT22;1953;51.222;6.624;2023-09-19T13:27:42;23.90;1.00
3876;DHT22;1953;51.222;6.624;2023-09-19T13:32:27;24.00;1.00
3876;DHT22;1953;51.222;6.624;2023-09-19T13:37:10;23.50;1.00
3876;DHT22;1953;51.222;6.624;2023-09-19T13:41:54;22.90;1.00
3876;DHT22;1953;51.222;6.624;2023-09-19T13:46:37;22.60;1.00
3876;DHT22;1953;51.222;6.624;2023-09-19T13:51:21;22.30;1.00
3876;DHT22;1953;51.222;6.624;2023-09-19T13:56:04;22.10;1.00
3876;DHT22;1953;51.222;6.624;2023-09-19T14:00:50;21.90;1.00
3876;DHT22;1953;51.222;6.624;2023-09-19T14:05:36;21.80;1.00
3876;DHT22;1953;51.222;6.624;2023-09-19T14:10:20;21.90;1.00
3876;DHT22;1953;51.222;6.624;2023-09-19T14:15:03;21.90;1.00
3876;DHT22;1953;51.222;6.624;2023-09-19T14:19:46;21.90;1.00
3876;DHT22;1953;51.222;6.624;2023-09-19T14:24:28;22.00;1.00
3876;DHT22;1953;51.222;6.624;2023-09-19T14:29:12;21.90;1.00
3876;DHT22;1953;51.222;6.624;2023-09-19T14:33:56;21.80;1.00
3876;DHT22;1953;51.222;6.624;2023-09-19T14:38:39;21.90;1.00
3876;DHT22;1953;51.222;6.624;2023-09-19T14:43:21;21.70;1.00
3876;DHT22;1953;51.222;6.624;2023-09-19T14:48:06;21.60;1.00
3876;DHT22;1953;51.222;6.624;2023-09-19T14:52:48;21.50;1.00
3876;DHT22;1953;51.222;6.624;2023-09-19T14:57:32;21.40;1.00
3876;DHT22;1953;51.222;6.624;2023-09-19T15:02:15;21.40;1.00
3876;DHT22;1953;51.222;6.624;2023-09-19T15:06:59;21.40;1.00
3876;DHT22;1953;51.222;6.624;2023-09-19T15:11:42;21.40;1.00
3876;DHT22;1953;51.222;6.624;2023-09-19T15:16:24;21.30;1.00
3876;DHT22;1953;51.222;6.624;2023-09-19T15:21:07;21.30;1.00
3876;DHT22;1953;51.222;6.624;2023-09-19T15:25:52;21.20;1.00
3876;DHT22;1953;51.222;6.624;2023-09-19T15:30:37;21.10;1.00
3876;DHT22;1953;51.222;6.624;2023-09-19T15:35:20;21.10;1.00
3876;DHT22;1953;51.222;6.624;2023-09-19T15:40:03;21.20;1.00
3876;DHT22;1953;51.222;6.624;2023-09-19T15:44:51;21.30;1.00
3876;DHT22;1953;51.222;6.624;2023-09-19T15:49:33;21.30;1.00
3876;DHT22;1953;51.222;6.624;2023-09-19T15:54:16;21.40;1.00
3876;DHT22;1953;51.222;6.624;2023-09-19T15:58:59;21.60;1.00
3876;DHT22;1953;51.222;6.624;2023-09-19T16:03:46;22.00;1.00
3876;DHT22;1953;51.222;6.624;2023-09-19T16:08:29;23.30;1.00
3876;DHT22;1953;51.222;6.624;2023-09-19T16:13:12;23.00;1.00
3876;DHT22;1953;51.222;6.624;2023-09-19T16:17:54;23.30;1.00
3876;DHT22;1953;51.222;6.624;2023-09-19T16:22:38;23.50;1.00
3876;DHT22;1953;51.222;6.624;2023-09-19T16:27:21;23.20;1.00
3876;DHT22;1953;51.222;6.624;2023-09-19T16:32:04;22.80;1.00
3876;DHT22;1953;51.222;6.624;2023-09-19T16:36:47;22.40;1.00
3876;DHT22;1953;51.222;6.624;2023-09-19T16:41:31;22.10;1.00
3876;DHT22;1953;51.222;6.624;2023-09-19T16:46:14;21.80;1.00
3876;DHT22;1953;51.222;6.624;2023-09-19T16:51:00;21.70;1.00
3876;DHT22;1953;51.222;6.624;2023-09-19T16:55:44;21.60;1.00
3876;DHT22;1953;51.222;6.624;2023-09-19T17:00:29;21.40;1.00
3876;DHT22;1953;51.222;6.624;2023-09-19T17:05:12;21.30;1.00
3876;DHT22;1953;51.222;6.624;2023-09-19T17:09:56;21.20;1.00
3876;DHT22;1953;51.222;6.624;2023-09-19T17:14:38;21.00;1.00
3876;DHT22;1953;51.222;6.624;2023-09-19T17:19:22;20.90;1.00
3876;DHT22;1953;51.222;6.624;2023-09-19T17:24:05;20.90;1.00
3876;DHT22;1953;51.222;6.624;2023-09-19T17:28:49;20.80;1.00
3876;DHT22;1953;51.222;6.624;2023-09-19T17:33:34;20.80;1.00
3876;DHT22;1953;51.222;6.624;2023-09-19T17:38:18;20.70;1.00
3876;DHT22;1953;51.222;6.624;2023-09-19T17:43:01;20.60;1.00
3876;DHT22;1953;51.222;6.624;2023-09-19T17:47:44;20.60;1.00
3876;DHT22;1953;51.222;6.624;2023-09-19T17:52:27;20.60;1.00
3876;DHT22;1953;51.222;6.624;2023-09-19T17:57:11;20.60;1.00
3876;DHT22;1953;51.222;6.624;2023-09-19T18:01:54;20.50;1.00
3876;DHT22;1953;51.222;6.624;2023-09-19T18:06:36;20.40;1.00
3876;DHT22;1953;51.222;6.624;2023-09-19T18:11:19;20.40;1.00
3876;DHT22;1953;51.222;6.624;2023-09-19T18:16:07;20.40;1.00
3876;DHT22;1953;51.222;6.624;2023-09-19T18:20:50;20.30;1.00
3876;DHT22;1953;51.222;6.624;2023-09-19T18:25:32;20.30;1.00
3876;DHT22;1953;51.222;6.624;2023-09-19T18:30:15;20.30;1.00
3876;DHT22;1953;51.222;6.624;2023-09-19T18:34:59;20.20;1.00
3876;DHT22;1953;51.222;6.624;2023-09-19T18:39:42;20.20;1.00
3876;DHT22;1953;51.222;6.624;2023-09-19T18:44:24;20.20;1.00
3876;DHT22;1953;51.222;6.624;2023-09-19T18:49:07;20.20;1.00
3876;DHT22;1953;51.222;6.624;2023-09-19T18:53:51;20.20;1.00
3876;DHT22;1953;51.222;6.624;2023-09-19T18:58:34;20.20;1.00
3876;DHT22;1953;51.222;6.624;2023-09-19T19:03:17;20.10;1.00
3876;DHT22;1953;51.222;6.624;2023-09-19T19:08:00;20.10;1.00
3876;DHT22;1953;51.222;6.624;2023-09-19T19:12:44;20.00;1.00
3876;DHT22;1953;51.222;6.624;2023-09-19T19:17:27;20.00;1.00
3876;DHT22;1953;51.222;6.624;2023-09-19T19:22:11;20.00;1.00
3876;DHT22;1953;51.222;6.624;2023-09-19T19:26:53;20.00;1.00
3876;DHT22;1953;51.222;6.624;2023-09-19T19:31:37;20.00;1.00
3876;DHT22;1953;51.222;6.624;2023-09-19T19:36:20;20.00;1.00
3876;DHT22;1953;51.222;6.624;2023-09-19T19:41:04;20.00;1.00
3876;DHT22;1953;51.222;6.624;2023-09-19T19:45:53;20.00;1.00
3876;DHT22;1953;51.222;6.624;2023-09-19T19:50:38;20.00;1.00
3876;DHT22;1953;51.222;6.624;2023-09-19T19:55:23;19.90;1.00
3876;DHT22;1953;51.222;6.624;2023-09-19T20:00:09;20.00;1.00
3876;DHT22;1953;51.222;6.624;2023-09-19T20:04:53;20.00;1.00
3876;DHT22;1953;51.222;6.624;2023-09-19T20:09:37;20.00;1.00
3876;DHT22;1953;51.222;6.624;2023-09-19T20:14:21;19.90;1.00
3876;DHT22;1953;51.222;6.624;2023-09-19T20:19:03;19.90;1.00
3876;DHT22;1953;51.222;6.624;2023-09-19T20:23:46;19.90;1.00
3876;DHT22;1953;51.222;6.624;2023-09-19T20:28:30;19.90;1.00
3876;DHT22;1953;51.222;6.624;2023-09-19T20:33:13;19.80;1.00
3876;DHT22;1953;51.222;6.624;2023-09-19T20:37:55;19.80;1.00
3876;DHT22;1953;51.222;6.624;2023-09-19T20:42:44;19.80;1.00
3876;DHT22;1953;51.222;6.624;2023-09-19T20:47:27;19.80;1.00
3876;DHT22;1953;51.222;6.624;2023-09-19T20:52:10;19.80;1.00
3876;DHT22;1953;51.222;6.624;2023-09-19T20:56:53;19.70;1.00
3876;DHT22;1953;51.222;6.624;2023-09-19T21:01:36;19.70;1.00
3876;DHT22;1953;51.222;6.624;2023-09-19T21:06:20;19.70;1.00
3876;DHT22;1953;51.222;6.624;2023-09-19T21:11:10;19.70;1.00
3876;DHT22;1953;51.222;6.624;2023-09-19T21:15:53;19.70;1.00
3876;DHT22;1953;51.222;6.624;2023-09-19T21:20:35;19.70;1.00
3876;DHT22;1953;51.222;6.624;2023-09-19T21:25:19;19.70;1.00
3876;DHT22;1953;51.222;6.624;2023-09-19T21:30:02;19.60;1.00
3876;DHT22;1953;51.222;6.624;2023-09-19T21:34:46;19.60;1.00
3876;DHT22;1953;51.222;6.624;2023-09-19T21:39:28;19.50;1.00
3876;DHT22;1953;51.222;6.624;2023-09-19T21:44:12;19.50;1.00
3876;DHT22;1953;51.222;6.624;2023-09-19T21:48:55;19.50;1.00
3876;DHT22;1953;51.222;6.624;2023-09-19T21:53:42;19.50;1.00
3876;DHT22;1953;51.222;6.624;2023-09-19T21:58:24;19.50;1.00
3876;DHT22;1953;51.222;6.624;2023-09-19T22:03:08;19.40;1.00
3876;DHT22;1953;51.222;6.624;2023-09-19T22:07:53;19.40;1.00
3876;DHT22;1953;51.222;6.624;2023-09-19T22:12:37;19.40;1.00
3876;DHT22;1953;51.222;6.624;2023-09-19T22:17:21;19.40;1.00
3876;DHT22;1953;51.222;6.624;2023-09-19T22:22:05;19.40;1.00
3876;DHT22;1953;51.222;6.624;2023-09-19T22:26:52;19.40;1.00
3876;DHT22;1953;51.222;6.624;2023-09-19T22:31:36;19.50;1.00
3876;DHT22;1953;51.222;6.624;2023-09-19T22:36:25;19.50;1.00
3876;DHT22;1953;51.222;6.624;2023-09-19T22:41:14;19.60;1.00
3876;DHT22;1953;51.222;6.624;2023-09-19T22:45:58;19.50;1.00
3876;DHT22;1953;51.222;6.624;2023-09-19T22:50:43;19.50;1.00
3876;DHT22;1953;51.222;6.624;2023-09-19T22:55:27;19.60;1.00
3876;DHT22;1953;51.222;6.624;2023-09-19T23:00:14;19.70;1.00
3876;DHT22;1953;51.222;6.624;2023-09-19T23:04:58;19.70;1.00
3876;DHT22;1953;51.222;6.624;2023-09-19T23:09:42;19.70;1.00
3876;DHT22;1953;51.222;6.624;2023-09-19T23:14:25;19.70;1.00
3876;DHT22;1953;51.222;6.624;2023-09-19T23:19:15;19.70;1.00
3876;DHT22;1953;51.222;6.624;2023-09-19T23:24:05;19.60;1.00
3876;DHT22;1953;51.222;6.624;2023-09-19T23:28:49;19.60;1.00
3876;DHT22;1953;51.222;6.624;2023-09-19T23:33:32;19.60;1.00
3876;DHT22;1953;51.222;6.624;2023-09-19T23:38:16;19.60;1.00
3876;DHT22;1953;51.222;6.624;2023-09-19T23:42:59;19.60;1.00
3876;DHT22;1953;51.222;6.624;2023-09-19T23:47:42;19.60;1.00
3876;DHT22;1953;51.222;6.624;2023-09-19T23:52:24;19.60;1.00
3876;DHT22;1953;51.222;6.624;2023-09-19T23:57:09;19.60;1.00
